sensor_id;sensor_type;location;lat;lon;timestamp;temperature;humidity
65406;DHT22;52016;51.228;-2.322;2022-10-31T00:00:00;14.30;78.70
65406;DHT22;52016;51.228;-2.322;2022-10-31T00:03:42;14.30;78.80
65406;DHT22;52016;51.228;-2.322;2022-10-31T00:07:24;14.30;78.80
65406;DHT22;52016;51.228;-2.322;2022-10-31T00:11:10;14.30;78.80
65406;DHT22;52016;51.228;-2.322;2022-10-31T00:14:52;14.20;78.90
65406;DHT22;52016;51.228;-2.322;2022-10-31T00:18:33;14.30;78.80
65406;DHT22;52016;51.228;-2.322;2022-10-31T00:22:15;14.30;78.80
65406;DHT22;52016;51.228;-2.322;2022-10-31T00:26:04;14.30;78.80
65406;DHT22;52016;51.228;-2.322;2022-10-31T00:29:46;14.20;79.00
65406;DHT22;52016;51.228;-2.322;2022-10-31T00:33:28;14.20;78.70
65406;DHT22;52016;51.228;-2.322;2022-10-31T00:37:10;14.10;78.90
65406;DHT22;52016;51.228;-2.322;2022-10-31T00:40:52;14.10;78.90
65406;DHT22;52016;51.228;-2.322;2022-10-31T00:44:34;14.00;79.20
65406;DHT22;52016;51.228;-2.322;2022-10-31T00:48:16;14.00;79.20
65406;DHT22;52016;51.228;-2.322;2022-10-31T00:51:57;13.90;79.30
65406;DHT22;52016;51.228;-2.322;2022-10-31T00:55:39;13.90;79.50
65406;DHT22;52016;51.228;-2.322;2022-10-31T00:59:21;13.90;79.50
65406;DHT22;52016;51.228;-2.322;2022-10-31T01:03:03;13.90;79.60
65406;DHT22;52016;51.228;-2.322;2022-10-31T01:06:44;13.90;79.50
65406;DHT22;52016;51.228;-2.322;2022-10-31T01:10:26;13.80;79.70
65406;DHT22;52016;51.228;-2.322;2022-10-31T01:14:08;13.90;79.60
65406;DHT22;52016;51.228;-2.322;2022-10-31T01:17:50;13.80;79.90
65406;DHT22;52016;51.228;-2.322;2022-10-31T01:21:32;13.80;79.90
65406;DHT22;52016;51.228;-2.322;2022-10-31T01:25:14;13.80;79.90
65406;DHT22;52016;51.228;-2.322;2022-10-31T01:28:58;13.80;80.00
65406;DHT22;52016;51.228;-2.322;2022-10-31T01:32:40;13.80;80.00
65406;DHT22;52016;51.228;-2.322;2022-10-31T01:36:27;13.80;80.20
65406;DHT22;52016;51.228;-2.322;2022-10-31T01:40:10;13.70;80.20
65406;DHT22;52016;51.228;-2.322;2022-10-31T01:43:54;13.80;81.80
65406;DHT22;52016;51.228;-2.322;2022-10-31T01:47:45;13.70;80.40
65406;DHT22;52016;51.228;-2.322;2022-10-31T01:51:35;13.80;80.80
65406;DHT22;52016;51.228;-2.322;2022-10-31T01:55:19;13.80;80.60
65406;DHT22;52016;51.228;-2.322;2022-10-31T01:59:09;13.80;80.60
65406;DHT22;52016;51.228;-2.322;2022-10-31T02:02:51;13.80;80.80
65406;DHT22;52016;51.228;-2.322;2022-10-31T02:06:51;13.80;80.90
65406;DHT22;52016;51.228;-2.322;2022-10-31T02:10:36;13.90;81.60
65406;DHT22;52016;51.228;-2.322;2022-10-31T02:14:19;13.90;81.00
65406;DHT22;52016;51.228;-2.322;2022-10-31T02:18:03;13.90;81.00
65406;DHT22;52016;51.228;-2.322;2022-10-31T02:21:52;14.00;81.00
65406;DHT22;52016;51.228;-2.322;2022-10-31T02:34:01;14.10;81.80
65406;DHT22;52016;51.228;-2.322;2022-10-31T02:50:27;13.90;81.40
65406;DHT22;52016;51.228;-2.322;2022-10-31T02:54:26;13.90;80.90
65406;DHT22;52016;51.228;-2.322;2022-10-31T02:58:11;13.90;81.60
65406;DHT22;52016;51.228;-2.322;2022-10-31T03:02:13;13.90;81.10
65406;DHT22;52016;51.228;-2.322;2022-10-31T03:06:09;13.90;81.40
65406;DHT22;52016;51.228;-2.322;2022-10-31T03:10:09;13.90;81.30
65406;DHT22;52016;51.228;-2.322;2022-10-31T03:14:02;13.90;81.40
65406;DHT22;52016;51.228;-2.322;2022-10-31T03:18:04;13.90;81.30
65406;DHT22;52016;51.228;-2.322;2022-10-31T03:22:00;14.00;81.70
65406;DHT22;52016;51.228;-2.322;2022-10-31T03:25:43;14.00;81.70
65406;DHT22;52016;51.228;-2.322;2022-10-31T03:29:28;14.00;81.50
65406;DHT22;52016;51.228;-2.322;2022-10-31T03:33:16;13.90;81.60
65406;DHT22;52016;51.228;-2.322;2022-10-31T03:37:03;14.00;81.80
65406;DHT22;52016;51.228;-2.322;2022-10-31T03:40:47;14.00;81.70
65406;DHT22;52016;51.228;-2.322;2022-10-31T03:44:32;14.00;81.70
65406;DHT22;52016;51.228;-2.322;2022-10-31T03:48:16;14.10;81.60
65406;DHT22;52016;51.228;-2.322;2022-10-31T03:52:01;14.10;81.60
65406;DHT22;52016;51.228;-2.322;2022-10-31T03:55:50;14.20;81.50
65406;DHT22;52016;51.228;-2.322;2022-10-31T03:59:42;14.20;81.70
65406;DHT22;52016;51.228;-2.322;2022-10-31T04:03:31;14.20;81.60
65406;DHT22;52016;51.228;-2.322;2022-10-31T04:07:15;14.20;81.50
65406;DHT22;52016;51.228;-2.322;2022-10-31T04:10:59;14.20;81.60
65406;DHT22;52016;51.228;-2.322;2022-10-31T04:14:43;14.30;81.60
65406;DHT22;52016;51.228;-2.322;2022-10-31T04:18:26;14.30;81.70
65406;DHT22;52016;51.228;-2.322;2022-10-31T04:22:08;14.30;81.70
65406;DHT22;52016;51.228;-2.322;2022-10-31T04:25:50;14.30;81.70
65406;DHT22;52016;51.228;-2.322;2022-10-31T04:29:31;14.30;81.80
65406;DHT22;52016;51.228;-2.322;2022-10-31T04:33:13;14.40;81.80
65406;DHT22;52016;51.228;-2.322;2022-10-31T04:36:55;14.40;81.60
65406;DHT22;52016;51.228;-2.322;2022-10-31T04:40:37;14.40;81.70
65406;DHT22;52016;51.228;-2.322;2022-10-31T04:44:18;14.40;81.70
65406;DHT22;52016;51.228;-2.322;2022-10-31T04:48:00;14.40;81.70
65406;DHT22;52016;51.228;-2.322;2022-10-31T04:51:43;14.40;81.70
65406;DHT22;52016;51.228;-2.322;2022-10-31T04:55:24;14.40;81.60
65406;DHT22;52016;51.228;-2.322;2022-10-31T04:59:06;14.40;81.50
65406;DHT22;52016;51.228;-2.322;2022-10-31T05:02:48;14.40;81.70
65406;DHT22;52016;51.228;-2.322;2022-10-31T05:06:30;14.40;81.70
65406;DHT22;52016;51.228;-2.322;2022-10-31T05:10:15;14.40;81.70
65406;DHT22;52016;51.228;-2.322;2022-10-31T05:13:57;14.30;81.60
65406;DHT22;52016;51.228;-2.322;2022-10-31T05:17:39;14.30;81.70
65406;DHT22;52016;51.228;-2.322;2022-10-31T05:21:21;14.30;81.70
65406;DHT22;52016;51.228;-2.322;2022-10-31T05:25:03;14.20;81.70
65406;DHT22;52016;51.228;-2.322;2022-10-31T05:28:45;14.20;81.70
65406;DHT22;52016;51.228;-2.322;2022-10-31T05:32:26;14.30;81.80
65406;DHT22;52016;51.228;-2.322;2022-10-31T05:36:08;14.30;81.80
65406;DHT22;52016;51.228;-2.322;2022-10-31T05:39:50;14.30;81.80
65406;DHT22;52016;51.228;-2.322;2022-10-31T05:43:32;14.30;81.70
65406;DHT22;52016;51.228;-2.322;2022-10-31T05:47:13;14.30;81.70
65406;DHT22;52016;51.228;-2.322;2022-10-31T05:50:55;14.30;81.70
65406;DHT22;52016;51.228;-2.322;2022-10-31T05:54:37;14.20;81.60
65406;DHT22;52016;51.228;-2.322;2022-10-31T05:58:18;14.20;81.70
65406;DHT22;52016;51.228;-2.322;2022-10-31T06:02:00;14.20;81.80
65406;DHT22;52016;51.228;-2.322;2022-10-31T06:05:42;14.10;81.70
65406;DHT22;52016;51.228;-2.322;2022-10-31T06:09:24;14.10;81.90
65406;DHT22;52016;51.228;-2.322;2022-10-31T06:13:05;14.00;81.90
65406;DHT22;52016;51.228;-2.322;2022-10-31T06:16:48;14.00;81.90
65406;DHT22;52016;51.228;-2.322;2022-10-31T06:20:30;13.90;81.90
65406;DHT22;52016;51.228;-2.322;2022-10-31T06:24:12;13.90;82.00
65406;DHT22;52016;51.228;-2.322;2022-10-31T06:27:54;13.90;82.00
65406;DHT22;52016;51.228;-2.322;2022-10-31T06:31:37;13.90;82.10
65406;DHT22;52016;51.228;-2.322;2022-10-31T06:35:18;13.90;81.90
65406;DHT22;52016;51.228;-2.322;2022-10-31T06:39:00;13.90;81.80
65406;DHT22;52016;51.228;-2.322;2022-10-31T06:42:42;13.90;81.90
65406;DHT22;52016;51.228;-2.322;2022-10-31T06:46:24;13.80;81.80
65406;DHT22;52016;51.228;-2.322;2022-10-31T06:50:06;13.70;81.80
65406;DHT22;52016;51.228;-2.322;2022-10-31T06:53:48;13.70;82.00
65406;DHT22;52016;51.228;-2.322;2022-10-31T06:57:29;13.60;81.90
65406;DHT22;52016;51.228;-2.322;2022-10-31T07:01:11;13.60;82.00
65406;DHT22;52016;51.228;-2.322;2022-10-31T07:04:53;13.60;82.20
65406;DHT22;52016;51.228;-2.322;2022-10-31T07:08:35;13.60;82.20
65406;DHT22;52016;51.228;-2.322;2022-10-31T07:12:17;13.60;82.20
65406;DHT22;52016;51.228;-2.322;2022-10-31T07:16:04;13.60;82.30
65406;DHT22;52016;51.228;-2.322;2022-10-31T07:19:45;13.60;82.40
65406;DHT22;52016;51.228;-2.322;2022-10-31T07:23:27;13.60;82.30
65406;DHT22;52016;51.228;-2.322;2022-10-31T07:27:09;13.60;82.40
65406;DHT22;52016;51.228;-2.322;2022-10-31T07:30:52;13.60;82.40
65406;DHT22;52016;51.228;-2.322;2022-10-31T07:34:34;13.60;82.50
65406;DHT22;52016;51.228;-2.322;2022-10-31T07:38:16;13.60;82.40
65406;DHT22;52016;51.228;-2.322;2022-10-31T07:42:00;13.60;82.50
65406;DHT22;52016;51.228;-2.322;2022-10-31T07:45:42;13.70;82.40
65406;DHT22;52016;51.228;-2.322;2022-10-31T07:49:24;13.70;82.40
65406;DHT22;52016;51.228;-2.322;2022-10-31T07:53:11;13.80;82.30
65406;DHT22;52016;51.228;-2.322;2022-10-31T07:56:53;13.80;82.30
65406;DHT22;52016;51.228;-2.322;2022-10-31T08:00:37;13.80;82.30
65406;DHT22;52016;51.228;-2.322;2022-10-31T08:04:19;13.90;82.30
65406;DHT22;52016;51.228;-2.322;2022-10-31T08:08:02;13.90;82.40
65406;DHT22;52016;51.228;-2.322;2022-10-31T08:11:44;13.90;82.50
65406;DHT22;52016;51.228;-2.322;2022-10-31T08:15:26;13.90;82.40
65406;DHT22;52016;51.228;-2.322;2022-10-31T08:19:08;13.90;82.40
65406;DHT22;52016;51.228;-2.322;2022-10-31T08:23:03;14.00;82.50
65406;DHT22;52016;51.228;-2.322;2022-10-31T08:26:45;14.10;82.60
65406;DHT22;52016;51.228;-2.322;2022-10-31T08:30:29;14.10;82.50
65406;DHT22;52016;51.228;-2.322;2022-10-31T08:34:12;14.20;82.60
65406;DHT22;52016;51.228;-2.322;2022-10-31T08:37:57;14.20;82.50
65406;DHT22;52016;51.228;-2.322;2022-10-31T08:41:40;14.30;82.60
65406;DHT22;52016;51.228;-2.322;2022-10-31T08:45:21;14.30;82.70
65406;DHT22;52016;51.228;-2.322;2022-10-31T08:49:03;14.40;82.60
65406;DHT22;52016;51.228;-2.322;2022-10-31T08:52:45;14.50;82.60
65406;DHT22;52016;51.228;-2.322;2022-10-31T08:56:45;14.50;82.60
65406;DHT22;52016;51.228;-2.322;2022-10-31T09:00:27;14.60;82.50
65406;DHT22;52016;51.228;-2.322;2022-10-31T09:04:09;14.70;82.30
65406;DHT22;52016;51.228;-2.322;2022-10-31T09:07:51;14.80;82.20
65406;DHT22;52016;51.228;-2.322;2022-10-31T09:11:33;14.90;82.10
65406;DHT22;52016;51.228;-2.322;2022-10-31T09:15:14;14.90;81.90
65406;DHT22;52016;51.228;-2.322;2022-10-31T09:18:56;15.00;81.70
65406;DHT22;52016;51.228;-2.322;2022-10-31T09:22:38;15.10;81.60
65406;DHT22;52016;51.228;-2.322;2022-10-31T09:26:20;15.20;81.60
65406;DHT22;52016;51.228;-2.322;2022-10-31T09:30:03;15.30;81.40
65406;DHT22;52016;51.228;-2.322;2022-10-31T09:33:45;15.30;81.00
65406;DHT22;52016;51.228;-2.322;2022-10-31T09:37:27;15.30;80.70
65406;DHT22;52016;51.228;-2.322;2022-10-31T09:41:19;15.40;80.50
65406;DHT22;52016;51.228;-2.322;2022-10-31T09:45:06;15.40;80.40
65406;DHT22;52016;51.228;-2.322;2022-10-31T09:52:53;15.50;80.20
65406;DHT22;52016;51.228;-2.322;2022-10-31T09:56:35;15.50;80.40
65406;DHT22;52016;51.228;-2.322;2022-10-31T10:00:20;15.60;80.10
65406;DHT22;52016;51.228;-2.322;2022-10-31T10:08:18;15.70;79.30
65406;DHT22;52016;51.228;-2.322;2022-10-31T10:12:13;15.70;78.60
65406;DHT22;52016;51.228;-2.322;2022-10-31T10:16:09;15.80;79.40
65406;DHT22;52016;51.228;-2.322;2022-10-31T10:20:09;15.80;78.80
65406;DHT22;52016;51.228;-2.322;2022-10-31T10:28:31;16.10;78.10
65406;DHT22;52016;51.228;-2.322;2022-10-31T10:32:25;16.30;78.60
65406;DHT22;52016;51.228;-2.322;2022-10-31T10:36:16;16.40;77.90
65406;DHT22;52016;51.228;-2.322;2022-10-31T10:44:00;16.70;75.40
65406;DHT22;52016;51.228;-2.322;2022-10-31T10:47:44;16.80;75.90
65406;DHT22;52016;51.228;-2.322;2022-10-31T10:51:59;16.70;76.30
65406;DHT22;52016;51.228;-2.322;2022-10-31T10:56:16;16.60;73.60
65406;DHT22;52016;51.228;-2.322;2022-10-31T11:00:17;16.60;73.10
65406;DHT22;52016;51.228;-2.322;2022-10-31T11:04:02;16.50;75.90
65406;DHT22;52016;51.228;-2.322;2022-10-31T11:07:44;16.60;76.10
65406;DHT22;52016;51.228;-2.322;2022-10-31T11:11:28;16.80;76.50
65406;DHT22;52016;51.228;-2.322;2022-10-31T11:15:24;16.90;76.10
65406;DHT22;52016;51.228;-2.322;2022-10-31T11:19:18;17.00;71.20
65406;DHT22;52016;51.228;-2.322;2022-10-31T11:23:18;17.00;73.70
65406;DHT22;52016;51.228;-2.322;2022-10-31T11:27:43;17.00;69.60
65406;DHT22;52016;51.228;-2.322;2022-10-31T11:31:17;16.90;72.10
65406;DHT22;52016;51.228;-2.322;2022-10-31T11:35:02;16.90;73.60
65406;DHT22;52016;51.228;-2.322;2022-10-31T11:38:50;16.90;72.60
65406;DHT22;52016;51.228;-2.322;2022-10-31T11:42:39;16.90;72.00
65406;DHT22;52016;51.228;-2.322;2022-10-31T11:46:27;17.00;69.00
65406;DHT22;52016;51.228;-2.322;2022-10-31T11:50:19;17.30;71.00
65406;DHT22;52016;51.228;-2.322;2022-10-31T11:54:04;17.40;71.30
65406;DHT22;52016;51.228;-2.322;2022-10-31T11:57:48;17.40;68.30
65406;DHT22;52016;51.228;-2.322;2022-10-31T12:01:32;17.40;70.70
65406;DHT22;52016;51.228;-2.322;2022-10-31T12:05:24;17.80;70.00
65406;DHT22;52016;51.228;-2.322;2022-10-31T12:17:17;19.00;65.00
65406;DHT22;52016;51.228;-2.322;2022-10-31T12:21:33;19.40;67.40
65406;DHT22;52016;51.228;-2.322;2022-10-31T12:25:21;19.50;65.40
65406;DHT22;52016;51.228;-2.322;2022-10-31T12:41:30;19.70;62.70
65406;DHT22;52016;51.228;-2.322;2022-10-31T12:45:36;19.90;62.90
65406;DHT22;52016;51.228;-2.322;2022-10-31T12:49:52;20.20;62.30
65406;DHT22;52016;51.228;-2.322;2022-10-31T12:54:48;20.60;59.20
65406;DHT22;52016;51.228;-2.322;2022-10-31T12:58:02;20.80;57.90
65406;DHT22;52016;51.228;-2.322;2022-10-31T13:01:51;20.80;58.00
65406;DHT22;52016;51.228;-2.322;2022-10-31T13:05:44;20.80;58.80
65406;DHT22;52016;51.228;-2.322;2022-10-31T13:09:42;20.40;59.20
65406;DHT22;52016;51.228;-2.322;2022-10-31T13:13:35;20.00;59.00
65406;DHT22;52016;51.228;-2.322;2022-10-31T13:17:33;19.50;58.70
65406;DHT22;52016;51.228;-2.322;2022-10-31T13:21:20;19.40;59.70
65406;DHT22;52016;51.228;-2.322;2022-10-31T13:25:17;19.50;58.50
65406;DHT22;52016;51.228;-2.322;2022-10-31T13:29:23;20.10;59.70
65406;DHT22;52016;51.228;-2.322;2022-10-31T13:33:19;20.70;58.00
65406;DHT22;52016;51.228;-2.322;2022-10-31T13:37:35;20.90;57.80
65406;DHT22;52016;51.228;-2.322;2022-10-31T13:41:46;20.70;54.60
65406;DHT22;52016;51.228;-2.322;2022-10-31T13:45:29;20.20;56.00
65406;DHT22;52016;51.228;-2.322;2022-10-31T13:53:13;19.40;59.00
65406;DHT22;52016;51.228;-2.322;2022-10-31T13:56:55;19.10;60.40
65406;DHT22;52016;51.228;-2.322;2022-10-31T14:00:36;18.90;61.20
65406;DHT22;52016;51.228;-2.322;2022-10-31T14:04:43;18.70;61.70
65406;DHT22;52016;51.228;-2.322;2022-10-31T14:08:26;18.40;62.40
65406;DHT22;52016;51.228;-2.322;2022-10-31T14:12:45;18.30;62.80
65406;DHT22;52016;51.228;-2.322;2022-10-31T14:16:31;18.20;64.30
65406;DHT22;52016;51.228;-2.322;2022-10-31T14:23:56;17.90;64.80
65406;DHT22;52016;51.228;-2.322;2022-10-31T14:27:46;17.90;64.90
65406;DHT22;52016;51.228;-2.322;2022-10-31T14:35:37;17.70;65.60
65406;DHT22;52016;51.228;-2.322;2022-10-31T14:40:07;17.50;65.80
65406;DHT22;52016;51.228;-2.322;2022-10-31T14:44:10;17.40;67.20
65406;DHT22;52016;51.228;-2.322;2022-10-31T14:52:16;17.20;68.60
65406;DHT22;52016;51.228;-2.322;2022-10-31T14:55:59;17.10;67.20
65406;DHT22;52016;51.228;-2.322;2022-10-31T14:59:54;16.90;67.30
65406;DHT22;52016;51.228;-2.322;2022-10-31T15:03:44;16.90;68.00
65406;DHT22;52016;51.228;-2.322;2022-10-31T15:07:50;16.80;68.00
65406;DHT22;52016;51.228;-2.322;2022-10-31T15:11:37;16.80;68.60
65406;DHT22;52016;51.228;-2.322;2022-10-31T15:15:26;16.70;69.20
65406;DHT22;52016;51.228;-2.322;2022-10-31T15:19:13;16.60;69.70
65406;DHT22;52016;51.228;-2.322;2022-10-31T15:22:58;16.60;69.40
65406;DHT22;52016;51.228;-2.322;2022-10-31T15:26:45;16.60;69.50
65406;DHT22;52016;51.228;-2.322;2022-10-31T15:30:30;16.60;69.90
65406;DHT22;52016;51.228;-2.322;2022-10-31T15:34:25;16.60;70.10
65406;DHT22;52016;51.228;-2.322;2022-10-31T15:38:09;16.60;71.40
65406;DHT22;52016;51.228;-2.322;2022-10-31T15:41:53;16.60;70.60
65406;DHT22;52016;51.228;-2.322;2022-10-31T15:45:35;16.50;70.80
65406;DHT22;52016;51.228;-2.322;2022-10-31T15:53:26;16.40;72.80
65406;DHT22;52016;51.228;-2.322;2022-10-31T15:57:11;16.40;72.50
65406;DHT22;52016;51.228;-2.322;2022-10-31T16:01:02;16.30;71.90
65406;DHT22;52016;51.228;-2.322;2022-10-31T16:04:55;16.30;72.90
65406;DHT22;52016;51.228;-2.322;2022-10-31T16:08:45;16.20;72.60
65406;DHT22;52016;51.228;-2.322;2022-10-31T16:12:37;16.10;73.30
65406;DHT22;52016;51.228;-2.322;2022-10-31T16:16:19;16.10;73.50
65406;DHT22;52016;51.228;-2.322;2022-10-31T16:20:22;16.10;73.20
65406;DHT22;52016;51.228;-2.322;2022-10-31T16:24:31;16.00;73.50
65406;DHT22;52016;51.228;-2.322;2022-10-31T16:28:19;16.00;75.60
65406;DHT22;52016;51.228;-2.322;2022-10-31T16:40:16;15.90;76.30
65406;DHT22;52016;51.228;-2.322;2022-10-31T16:43:57;15.90;74.20
65406;DHT22;52016;51.228;-2.322;2022-10-31T16:47:41;15.90;74.80
65406;DHT22;52016;51.228;-2.322;2022-10-31T16:51:23;15.80;75.40
65406;DHT22;52016;51.228;-2.322;2022-10-31T16:55:06;15.80;76.20
65406;DHT22;52016;51.228;-2.322;2022-10-31T16:58:48;15.70;75.30
65406;DHT22;52016;51.228;-2.322;2022-10-31T17:02:29;15.70;75.70
65406;DHT22;52016;51.228;-2.322;2022-10-31T17:06:12;15.70;76.80
65406;DHT22;52016;51.228;-2.322;2022-10-31T17:09:54;15.60;76.70
65406;DHT22;52016;51.228;-2.322;2022-10-31T17:13:35;15.60;77.20
65406;DHT22;52016;51.228;-2.322;2022-10-31T17:17:17;15.50;77.80
65406;DHT22;52016;51.228;-2.322;2022-10-31T17:21:01;15.40;76.90
65406;DHT22;52016;51.228;-2.322;2022-10-31T17:24:43;15.40;77.00
65406;DHT22;52016;51.228;-2.322;2022-10-31T17:28:25;15.40;77.20
65406;DHT22;52016;51.228;-2.322;2022-10-31T17:32:07;15.40;77.10
65406;DHT22;52016;51.228;-2.322;2022-10-31T17:35:49;15.40;77.50
65406;DHT22;52016;51.228;-2.322;2022-10-31T17:39:31;15.40;77.80
65406;DHT22;52016;51.228;-2.322;2022-10-31T17:43:12;15.40;78.10
65406;DHT22;52016;51.228;-2.322;2022-10-31T17:46:54;15.40;77.60
65406;DHT22;52016;51.228;-2.322;2022-10-31T17:50:36;15.40;77.60
65406;DHT22;52016;51.228;-2.322;2022-10-31T17:54:18;15.40;77.80
65406;DHT22;52016;51.228;-2.322;2022-10-31T17:58:04;15.40;78.30
65406;DHT22;52016;51.228;-2.322;2022-10-31T18:01:46;15.30;79.40
65406;DHT22;52016;51.228;-2.322;2022-10-31T18:05:28;15.30;79.10
65406;DHT22;52016;51.228;-2.322;2022-10-31T18:09:10;15.30;79.50
65406;DHT22;52016;51.228;-2.322;2022-10-31T18:12:51;15.30;78.90
65406;DHT22;52016;51.228;-2.322;2022-10-31T18:16:33;15.30;80.30
65406;DHT22;52016;51.228;-2.322;2022-10-31T18:20:20;15.30;79.60
65406;DHT22;52016;51.228;-2.322;2022-10-31T18:24:02;15.30;79.10
65406;DHT22;52016;51.228;-2.322;2022-10-31T18:27:44;15.40;79.70
65406;DHT22;52016;51.228;-2.322;2022-10-31T18:31:25;15.40;79.60
65406;DHT22;52016;51.228;-2.322;2022-10-31T18:35:07;15.40;79.40
65406;DHT22;52016;51.228;-2.322;2022-10-31T18:38:49;15.40;79.70
65406;DHT22;52016;51.228;-2.322;2022-10-31T18:42:31;15.40;79.90
65406;DHT22;52016;51.228;-2.322;2022-10-31T18:46:14;15.40;79.90
65406;DHT22;52016;51.228;-2.322;2022-10-31T18:49:56;15.50;79.90
65406;DHT22;52016;51.228;-2.322;2022-10-31T18:53:38;15.50;80.00
65406;DHT22;52016;51.228;-2.322;2022-10-31T18:57:20;15.50;80.30
65406;DHT22;52016;51.228;-2.322;2022-10-31T19:01:07;15.60;80.50
65406;DHT22;52016;51.228;-2.322;2022-10-31T19:04:49;15.60;80.50
65406;DHT22;52016;51.228;-2.322;2022-10-31T19:08:31;15.60;80.40
65406;DHT22;52016;51.228;-2.322;2022-10-31T19:12:13;15.60;81.00
65406;DHT22;52016;51.228;-2.322;2022-10-31T19:15:55;15.60;81.20
65406;DHT22;52016;51.228;-2.322;2022-10-31T19:19:37;15.60;81.00
65406;DHT22;52016;51.228;-2.322;2022-10-31T19:23:19;15.60;81.20
65406;DHT22;52016;51.228;-2.322;2022-10-31T19:27:01;15.60;81.50
65406;DHT22;52016;51.228;-2.322;2022-10-31T19:30:51;15.60;81.50
65406;DHT22;52016;51.228;-2.322;2022-10-31T19:34:33;15.60;81.90
65406;DHT22;52016;51.228;-2.322;2022-10-31T19:38:15;15.60;81.50
65406;DHT22;52016;51.228;-2.322;2022-10-31T19:41:57;15.60;81.50
65406;DHT22;52016;51.228;-2.322;2022-10-31T19:45:39;15.60;81.50
65406;DHT22;52016;51.228;-2.322;2022-10-31T19:49:20;15.50;81.60
65406;DHT22;52016;51.228;-2.322;2022-10-31T19:53:02;15.50;81.70
65406;DHT22;52016;51.228;-2.322;2022-10-31T19:56:47;15.50;81.90
65406;DHT22;52016;51.228;-2.322;2022-10-31T20:00:29;15.50;82.00
65406;DHT22;52016;51.228;-2.322;2022-10-31T20:04:11;15.50;81.90
65406;DHT22;52016;51.228;-2.322;2022-10-31T20:07:52;15.50;81.80
65406;DHT22;52016;51.228;-2.322;2022-10-31T20:11:36;15.50;81.90
65406;DHT22;52016;51.228;-2.322;2022-10-31T20:15:18;15.50;81.90
65406;DHT22;52016;51.228;-2.322;2022-10-31T20:19:00;15.50;82.00
65406;DHT22;52016;51.228;-2.322;2022-10-31T20:22:42;15.40;82.00
65406;DHT22;52016;51.228;-2.322;2022-10-31T20:26:25;15.50;81.80
65406;DHT22;52016;51.228;-2.322;2022-10-31T20:30:08;15.40;81.80
65406;DHT22;52016;51.228;-2.322;2022-10-31T20:33:50;15.50;81.60
65406;DHT22;52016;51.228;-2.322;2022-10-31T20:37:32;15.50;81.60
65406;DHT22;52016;51.228;-2.322;2022-10-31T20:41:14;15.50;81.80
65406;DHT22;52016;51.228;-2.322;2022-10-31T20:44:56;15.50;81.80
65406;DHT22;52016;51.228;-2.322;2022-10-31T20:48:38;15.40;81.60
65406;DHT22;52016;51.228;-2.322;2022-10-31T20:52:20;15.40;81.70
65406;DHT22;52016;51.228;-2.322;2022-10-31T20:56:13;15.40;81.70
65406;DHT22;52016;51.228;-2.322;2022-10-31T20:59:55;15.40;82.40
65406;DHT22;52016;51.228;-2.322;2022-10-31T21:03:37;15.30;81.50
65406;DHT22;52016;51.228;-2.322;2022-10-31T21:07:19;15.20;81.50
65406;DHT22;52016;51.228;-2.322;2022-10-31T21:11:05;15.00;81.30
65406;DHT22;52016;51.228;-2.322;2022-10-31T21:14:46;14.90;81.00
65406;DHT22;52016;51.228;-2.322;2022-10-31T21:18:29;14.80;81.00
65406;DHT22;52016;51.228;-2.322;2022-10-31T21:22:10;14.60;81.10
65406;DHT22;52016;51.228;-2.322;2022-10-31T21:25:52;14.50;81.10
65406;DHT22;52016;51.228;-2.322;2022-10-31T21:29:34;14.40;81.20
65406;DHT22;52016;51.228;-2.322;2022-10-31T21:33:16;14.40;81.20
65406;DHT22;52016;51.228;-2.322;2022-10-31T21:36:58;14.30;81.40
65406;DHT22;52016;51.228;-2.322;2022-10-31T21:40:40;14.30;81.30
65406;DHT22;52016;51.228;-2.322;2022-10-31T21:44:21;14.30;81.70
65406;DHT22;52016;51.228;-2.322;2022-10-31T21:48:03;14.30;81.60
65406;DHT22;52016;51.228;-2.322;2022-10-31T21:51:45;14.20;81.60
65406;DHT22;52016;51.228;-2.322;2022-10-31T21:55:28;14.20;81.80
65406;DHT22;52016;51.228;-2.322;2022-10-31T21:59:09;14.20;81.70
65406;DHT22;52016;51.228;-2.322;2022-10-31T22:02:51;14.10;81.80
65406;DHT22;52016;51.228;-2.322;2022-10-31T22:06:34;14.10;81.80
65406;DHT22;52016;51.228;-2.322;2022-10-31T22:10:16;14.00;81.90
65406;DHT22;52016;51.228;-2.322;2022-10-31T22:13:58;14.00;81.90
65406;DHT22;52016;51.228;-2.322;2022-10-31T22:17:40;14.00;81.80
65406;DHT22;52016;51.228;-2.322;2022-10-31T22:21:24;14.00;81.80
65406;DHT22;52016;51.228;-2.322;2022-10-31T22:25:07;13.90;81.70
65406;DHT22;52016;51.228;-2.322;2022-10-31T22:28:50;13.80;81.80
65406;DHT22;52016;51.228;-2.322;2022-10-31T22:32:36;13.80;81.90
65406;DHT22;52016;51.228;-2.322;2022-10-31T22:36:26;13.60;81.60
65406;DHT22;52016;51.228;-2.322;2022-10-31T22:40:08;13.50;81.40
65406;DHT22;52016;51.228;-2.322;2022-10-31T22:43:50;13.40;81.40
65406;DHT22;52016;51.228;-2.322;2022-10-31T22:47:32;13.40;81.40
65406;DHT22;52016;51.228;-2.322;2022-10-31T22:51:28;13.30;81.50
65406;DHT22;52016;51.228;-2.322;2022-10-31T22:55:10;13.30;81.30
65406;DHT22;52016;51.228;-2.322;2022-10-31T22:58:52;13.20;81.30
65406;DHT22;52016;51.228;-2.322;2022-10-31T23:02:34;13.20;81.30
65406;DHT22;52016;51.228;-2.322;2022-10-31T23:06:18;13.10;81.30
65406;DHT22;52016;51.228;-2.322;2022-10-31T23:10:00;13.20;81.20
65406;DHT22;52016;51.228;-2.322;2022-10-31T23:13:43;13.10;81.10
65406;DHT22;52016;51.228;-2.322;2022-10-31T23:17:44;13.10;81.10
65406;DHT22;52016;51.228;-2.322;2022-10-31T23:21:26;13.10;81.00
65406;DHT22;52016;51.228;-2.322;2022-10-31T23:25:26;13.10;81.00
65406;DHT22;52016;51.228;-2.322;2022-10-31T23:29:27;13.10;81.00
65406;DHT22;52016;51.228;-2.322;2022-10-31T23:33:09;13.10;81.00
65406;DHT22;52016;51.228;-2.322;2022-10-31T23:36:50;13.10;81.10
65406;DHT22;52016;51.228;-2.322;2022-10-31T23:40:32;13.10;81.10
65406;DHT22;52016;51.228;-2.322;2022-10-31T23:44:16;13.10;81.20
65406;DHT22;52016;51.228;-2.322;2022-10-31T23:47:58;13.10;81.30
65406;DHT22;52016;51.228;-2.322;2022-10-31T23:51:41;13.20;81.20
65406;DHT22;52016;51.228;-2.322;2022-10-31T23:55:23;13.20;81.30
65406;DHT22;52016;51.228;-2.322;2022-10-31T23:59:05;13.20;81.30
